sensor_id;sensor_type;location;lat;lon;timestamp;P1;durP1;ratioP1;P2;durP2;ratioP2
47812;SDS011;34221;45.296;9.516;2023-02-15T00:00:08;98.85;;;64.60;;
47812;SDS011;34221;45.296;9.516;2023-02-15T00:00:27;103.38;;;64.70;;
47812;SDS011;34221;45.296;9.516;2023-02-15T00:00:41;103.45;;;65.07;;
47812;SDS011;34221;45.296;9.516;2023-02-15T00:01:09;100.22;;;64.63;;
47812;SDS011;34221;45.296;9.516;2023-02-15T00:01:25;103.25;;;66.82;;
47812;SDS011;34221;45.296;9.516;2023-02-15T00:01:40;102.22;;;67.10;;
47812;SDS011;34221;45.296;9.516;2023-02-15T00:01:56;101.65;;;66.18;;
47812;SDS011;34221;45.296;9.516;2023-02-15T00:02:11;96.80;;;64.50;;
47812;SDS011;34221;45.296;9.516;2023-02-15T00:02:26;96.53;;;64.45;;
47812;SDS011;34221;45.296;9.516;2023-02-15T00:02:42;98.65;;;63.35;;
47812;SDS011;34221;45.296;9.516;2023-02-15T00:02:56;94.07;;;60.72;;
47812;SDS011;34221;45.296;9.516;2023-02-15T00:03:11;96.25;;;62.00;;
47812;SDS011;34221;45.296;9.516;2023-02-15T00:03:26;97.30;;;63.28;;
47812;SDS011;34221;45.296;9.516;2023-02-15T00:03:41;94.95;;;63.45;;
47812;SDS011;34221;45.296;9.516;2023-02-15T00:03:56;98.07;;;63.47;;
47812;SDS011;34221;45.296;9.516;2023-02-15T00:04:14;98.78;;;62.78;;
47812;SDS011;34221;45.296;9.516;2023-02-15T00:04:34;103.18;;;63.65;;
47812;SDS011;34221;45.296;9.516;2023-02-15T00:05:01;106.50;;;65.40;;
47812;SDS011;34221;45.296;9.516;2023-02-15T00:05:16;105.05;;;65.03;;
47812;SDS011;34221;45.296;9.516;2023-02-15T00:05:31;100.05;;;63.25;;
47812;SDS011;34221;45.296;9.516;2023-02-15T00:05:46;97.28;;;61.65;;
47812;SDS011;34221;45.296;9.516;2023-02-15T00:06:01;94.03;;;60.70;;
47812;SDS011;34221;45.296;9.516;2023-02-15T00:06:16;94.70;;;60.60;;
47812;SDS011;34221;45.296;9.516;2023-02-15T00:06:32;92.43;;;59.90;;
47812;SDS011;34221;45.296;9.516;2023-02-15T00:06:47;88.32;;;58.67;;
47812;SDS011;34221;45.296;9.516;2023-02-15T00:07:03;94.68;;;59.80;;
47812;SDS011;34221;45.296;9.516;2023-02-15T00:07:18;96.10;;;62.17;;
47812;SDS011;34221;45.296;9.516;2023-02-15T00:07:34;94.28;;;61.15;;
47812;SDS011;34221;45.296;9.516;2023-02-15T00:07:49;93.13;;;58.65;;
47812;SDS011;34221;45.296;9.516;2023-02-15T00:08:04;87.53;;;56.60;;
47812;SDS011;34221;45.296;9.516;2023-02-15T00:08:18;86.15;;;57.38;;
47812;SDS011;34221;45.296;9.516;2023-02-15T00:08:35;90.95;;;59.83;;
47812;SDS011;34221;45.296;9.516;2023-02-15T00:08:50;96.38;;;60.03;;
47812;SDS011;34221;45.296;9.516;2023-02-15T00:09:06;98.13;;;59.97;;
47812;SDS011;34221;45.296;9.516;2023-02-15T00:09:21;94.68;;;59.60;;
47812;SDS011;34221;45.296;9.516;2023-02-15T00:09:36;90.40;;;58.08;;
47812;SDS011;34221;45.296;9.516;2023-02-15T00:09:51;91.47;;;58.05;;
47812;SDS011;34221;45.296;9.516;2023-02-15T00:10:06;93.30;;;58.75;;
47812;SDS011;34221;45.296;9.516;2023-02-15T00:10:22;92.80;;;58.20;;
47812;SDS011;34221;45.296;9.516;2023-02-15T00:10:37;91.30;;;57.80;;
47812;SDS011;34221;45.296;9.516;2023-02-15T00:10:52;88.90;;;57.22;;
47812;SDS011;34221;45.296;9.516;2023-02-15T00:11:15;87.43;;;56.22;;
47812;SDS011;34221;45.296;9.516;2023-02-15T00:11:52;85.78;;;54.92;;
47812;SDS011;34221;45.296;9.516;2023-02-15T00:12:07;85.18;;;55.05;;
47812;SDS011;34221;45.296;9.516;2023-02-15T00:12:23;85.68;;;56.42;;
47812;SDS011;34221;45.296;9.516;2023-02-15T00:12:38;87.45;;;57.00;;
47812;SDS011;34221;45.296;9.516;2023-02-15T00:12:53;84.78;;;53.63;;
47812;SDS011;34221;45.296;9.516;2023-02-15T00:13:08;80.38;;;53.38;;
47812;SDS011;34221;45.296;9.516;2023-02-15T00:13:22;81.53;;;55.45;;
47812;SDS011;34221;45.296;9.516;2023-02-15T00:13:38;86.22;;;55.13;;
47812;SDS011;34221;45.296;9.516;2023-02-15T00:13:55;85.50;;;54.03;;
47812;SDS011;34221;45.296;9.516;2023-02-15T00:14:13;83.03;;;53.33;;
47812;SDS011;34221;45.296;9.516;2023-02-15T00:14:32;83.88;;;53.58;;
47812;SDS011;34221;45.296;9.516;2023-02-15T00:14:47;85.33;;;55.57;;
47812;SDS011;34221;45.296;9.516;2023-02-15T00:15:02;84.30;;;54.38;;
47812;SDS011;34221;45.296;9.516;2023-02-15T00:15:18;82.47;;;53.00;;
47812;SDS011;34221;45.296;9.516;2023-02-15T00:15:32;82.07;;;53.20;;
47812;SDS011;34221;45.296;9.516;2023-02-15T00:15:47;84.45;;;53.20;;
47812;SDS011;34221;45.296;9.516;2023-02-15T00:16:03;84.43;;;52.92;;
47812;SDS011;34221;45.296;9.516;2023-02-15T00:16:20;83.80;;;52.28;;
47812;SDS011;34221;45.296;9.516;2023-02-15T00:16:35;82.97;;;52.20;;
47812;SDS011;34221;45.296;9.516;2023-02-15T00:16:51;85.43;;;55.80;;
47812;SDS011;34221;45.296;9.516;2023-02-15T00:17:08;83.40;;;56.15;;
47812;SDS011;34221;45.296;9.516;2023-02-15T00:17:23;80.50;;;53.20;;
47812;SDS011;34221;45.296;9.516;2023-02-15T00:17:41;85.18;;;52.60;;
47812;SDS011;34221;45.296;9.516;2023-02-15T00:17:56;87.88;;;53.05;;
47812;SDS011;34221;45.296;9.516;2023-02-15T00:18:11;85.90;;;53.33;;
47812;SDS011;34221;45.296;9.516;2023-02-15T00:18:26;82.80;;;52.88;;
47812;SDS011;34221;45.296;9.516;2023-02-15T00:18:41;83.55;;;52.88;;
47812;SDS011;34221;45.296;9.516;2023-02-15T00:18:56;83.97;;;53.58;;
47812;SDS011;34221;45.296;9.516;2023-02-15T00:19:11;83.05;;;53.63;;
47812;SDS011;34221;45.296;9.516;2023-02-15T00:19:29;83.03;;;52.78;;
47812;SDS011;34221;45.296;9.516;2023-02-15T00:19:44;83.13;;;52.20;;
47812;SDS011;34221;45.296;9.516;2023-02-15T00:19:59;83.80;;;54.15;;
47812;SDS011;34221;45.296;9.516;2023-02-15T00:20:14;82.65;;;55.33;;
47812;SDS011;34221;45.296;9.516;2023-02-15T00:20:29;81.82;;;54.75;;
47812;SDS011;34221;45.296;9.516;2023-02-15T00:20:44;84.68;;;54.40;;
47812;SDS011;34221;45.296;9.516;2023-02-15T00:21:02;85.40;;;53.25;;
47812;SDS011;34221;45.296;9.516;2023-02-15T00:21:22;80.45;;;51.30;;
47812;SDS011;34221;45.296;9.516;2023-02-15T00:21:38;82.97;;;52.57;;
47812;SDS011;34221;45.296;9.516;2023-02-15T00:21:53;92.85;;;54.00;;
47812;SDS011;34221;45.296;9.516;2023-02-15T00:22:09;90.18;;;52.53;;
47812;SDS011;34221;45.296;9.516;2023-02-15T00:22:25;81.60;;;52.70;;
47812;SDS011;34221;45.296;9.516;2023-02-15T00:22:40;85.38;;;53.03;;
47812;SDS011;34221;45.296;9.516;2023-02-15T00:22:55;85.45;;;52.53;;
47812;SDS011;34221;45.296;9.516;2023-02-15T00:23:09;83.00;;;52.15;;
47812;SDS011;34221;45.296;9.516;2023-02-15T00:23:26;79.82;;;50.30;;
47812;SDS011;34221;45.296;9.516;2023-02-15T00:23:41;79.82;;;50.45;;
47812;SDS011;34221;45.296;9.516;2023-02-15T00:23:56;82.25;;;51.25;;
47812;SDS011;34221;45.296;9.516;2023-02-15T00:24:14;79.20;;;50.63;;
47812;SDS011;34221;45.296;9.516;2023-02-15T00:24:31;82.70;;;51.67;;
47812;SDS011;34221;45.296;9.516;2023-02-15T00:24:46;84.30;;;51.10;;
47812;SDS011;34221;45.296;9.516;2023-02-15T00:25:01;80.65;;;50.50;;
47812;SDS011;34221;45.296;9.516;2023-02-15T00:25:16;80.35;;;50.80;;
47812;SDS011;34221;45.296;9.516;2023-02-15T00:25:31;79.13;;;51.55;;
47812;SDS011;34221;45.296;9.516;2023-02-15T00:25:46;83.50;;;52.67;;
47812;SDS011;34221;45.296;9.516;2023-02-15T00:26:07;84.35;;;52.40;;
47812;SDS011;34221;45.296;9.516;2023-02-15T00:26:25;84.47;;;53.15;;
47812;SDS011;34221;45.296;9.516;2023-02-15T00:26:40;83.07;;;52.47;;
47812;SDS011;34221;45.296;9.516;2023-02-15T00:26:57;78.57;;;49.95;;
47812;SDS011;34221;45.296;9.516;2023-02-15T00:27:12;79.70;;;50.03;;
47812;SDS011;34221;45.296;9.516;2023-02-15T00:27:27;79.82;;;51.25;;
47812;SDS011;34221;45.296;9.516;2023-02-15T00:27:42;77.90;;;51.00;;
47812;SDS011;34221;45.296;9.516;2023-02-15T00:27:56;75.43;;;50.15;;
47812;SDS011;34221;45.296;9.516;2023-02-15T00:28:14;75.78;;;51.03;;
47812;SDS011;34221;45.296;9.516;2023-02-15T00:28:29;76.93;;;50.97;;
47812;SDS011;34221;45.296;9.516;2023-02-15T00:28:47;75.22;;;48.35;;
47812;SDS011;34221;45.296;9.516;2023-02-15T00:29:02;78.68;;;50.05;;
47812;SDS011;34221;45.296;9.516;2023-02-15T00:29:18;82.28;;;51.30;;
47812;SDS011;34221;45.296;9.516;2023-02-15T00:29:35;79.88;;;50.67;;
47812;SDS011;34221;45.296;9.516;2023-02-15T00:29:50;80.05;;;50.85;;
47812;SDS011;34221;45.296;9.516;2023-02-15T00:30:05;80.85;;;50.55;;
47812;SDS011;34221;45.296;9.516;2023-02-15T00:30:20;81.40;;;51.10;;
47812;SDS011;34221;45.296;9.516;2023-02-15T00:30:35;82.20;;;50.25;;
47812;SDS011;34221;45.296;9.516;2023-02-15T00:30:50;77.50;;;49.42;;
47812;SDS011;34221;45.296;9.516;2023-02-15T00:31:06;76.45;;;49.67;;
47812;SDS011;34221;45.296;9.516;2023-02-15T00:31:24;78.75;;;48.95;;
47812;SDS011;34221;45.296;9.516;2023-02-15T00:31:39;79.18;;;49.83;;
47812;SDS011;34221;45.296;9.516;2023-02-15T00:31:54;81.95;;;50.22;;
47812;SDS011;34221;45.296;9.516;2023-02-15T00:32:15;79.38;;;49.00;;
47812;SDS011;34221;45.296;9.516;2023-02-15T00:32:30;76.82;;;48.35;;
47812;SDS011;34221;45.296;9.516;2023-02-15T00:32:47;79.35;;;49.78;;
47812;SDS011;34221;45.296;9.516;2023-02-15T00:33:02;73.97;;;47.80;;
47812;SDS011;34221;45.296;9.516;2023-02-15T00:33:17;73.13;;;48.28;;
47812;SDS011;34221;45.296;9.516;2023-02-15T00:33:32;80.07;;;50.00;;
47812;SDS011;34221;45.296;9.516;2023-02-15T00:33:47;83.28;;;50.53;;
47812;SDS011;34221;45.296;9.516;2023-02-15T00:34:03;76.35;;;49.15;;
47812;SDS011;34221;45.296;9.516;2023-02-15T00:34:22;75.40;;;49.13;;
47812;SDS011;34221;45.296;9.516;2023-02-15T00:34:40;76.70;;;49.10;;
47812;SDS011;34221;45.296;9.516;2023-02-15T00:34:55;76.13;;;48.55;;
47812;SDS011;34221;45.296;9.516;2023-02-15T00:35:12;77.90;;;48.88;;
47812;SDS011;34221;45.296;9.516;2023-02-15T00:35:27;82.85;;;49.38;;
47812;SDS011;34221;45.296;9.516;2023-02-15T00:35:45;78.43;;;46.88;;
47812;SDS011;34221;45.296;9.516;2023-02-15T00:36:00;74.18;;;46.58;;
47812;SDS011;34221;45.296;9.516;2023-02-15T00:36:17;78.32;;;47.65;;
47812;SDS011;34221;45.296;9.516;2023-02-15T00:36:32;77.45;;;46.65;;
47812;SDS011;34221;45.296;9.516;2023-02-15T00:36:47;76.47;;;46.50;;
47812;SDS011;34221;45.296;9.516;2023-02-15T00:37:03;71.10;;;45.75;;
47812;SDS011;34221;45.296;9.516;2023-02-15T00:37:18;69.38;;;46.58;;
47812;SDS011;34221;45.296;9.516;2023-02-15T00:37:35;78.95;;;49.25;;
47812;SDS011;34221;45.296;9.516;2023-02-15T00:37:51;75.18;;;47.03;;
47812;SDS011;34221;45.296;9.516;2023-02-15T00:38:06;71.97;;;46.72;;
47812;SDS011;34221;45.296;9.516;2023-02-15T00:38:21;71.10;;;46.78;;
47812;SDS011;34221;45.296;9.516;2023-02-15T00:38:37;70.93;;;46.58;;
47812;SDS011;34221;45.296;9.516;2023-02-15T00:38:53;71.93;;;47.83;;
47812;SDS011;34221;45.296;9.516;2023-02-15T00:39:08;76.85;;;49.95;;
47812;SDS011;34221;45.296;9.516;2023-02-15T00:39:23;81.25;;;50.58;;
47812;SDS011;34221;45.296;9.516;2023-02-15T00:39:38;73.78;;;47.63;;
47812;SDS011;34221;45.296;9.516;2023-02-15T00:39:54;72.18;;;47.60;;
47812;SDS011;34221;45.296;9.516;2023-02-15T00:40:09;74.45;;;47.28;;
47812;SDS011;34221;45.296;9.516;2023-02-15T00:40:24;78.07;;;47.03;;
47812;SDS011;34221;45.296;9.516;2023-02-15T00:40:39;84.93;;;49.72;;
47812;SDS011;34221;45.296;9.516;2023-02-15T00:40:54;84.40;;;49.20;;
47812;SDS011;34221;45.296;9.516;2023-02-15T00:41:10;76.38;;;48.22;;
47812;SDS011;34221;45.296;9.516;2023-02-15T00:41:26;74.43;;;48.47;;
47812;SDS011;34221;45.296;9.516;2023-02-15T00:41:40;73.95;;;47.78;;
47812;SDS011;34221;45.296;9.516;2023-02-15T00:41:55;71.07;;;47.13;;
47812;SDS011;34221;45.296;9.516;2023-02-15T00:42:11;73.68;;;47.55;;
47812;SDS011;34221;45.296;9.516;2023-02-15T00:42:28;73.00;;;48.00;;
47812;SDS011;34221;45.296;9.516;2023-02-15T00:42:43;71.72;;;48.28;;
47812;SDS011;34221;45.296;9.516;2023-02-15T00:42:58;77.68;;;50.00;;
47812;SDS011;34221;45.296;9.516;2023-02-15T00:43:13;77.40;;;49.40;;
47812;SDS011;34221;45.296;9.516;2023-02-15T00:43:31;76.07;;;48.45;;
47812;SDS011;34221;45.296;9.516;2023-02-15T00:43:47;76.82;;;47.60;;
47812;SDS011;34221;45.296;9.516;2023-02-15T00:44:02;76.88;;;48.75;;
47812;SDS011;34221;45.296;9.516;2023-02-15T00:44:17;77.28;;;49.83;;
47812;SDS011;34221;45.296;9.516;2023-02-15T00:44:32;77.45;;;50.75;;
47812;SDS011;34221;45.296;9.516;2023-02-15T00:44:47;79.00;;;50.72;;
47812;SDS011;34221;45.296;9.516;2023-02-15T00:45:02;76.57;;;48.08;;
47812;SDS011;34221;45.296;9.516;2023-02-15T00:45:18;75.65;;;46.97;;
47812;SDS011;34221;45.296;9.516;2023-02-15T00:45:33;80.15;;;48.92;;
47812;SDS011;34221;45.296;9.516;2023-02-15T00:45:48;79.07;;;49.50;;
47812;SDS011;34221;45.296;9.516;2023-02-15T00:46:04;76.65;;;49.63;;
47812;SDS011;34221;45.296;9.516;2023-02-15T00:46:19;76.93;;;49.63;;
47812;SDS011;34221;45.296;9.516;2023-02-15T00:46:34;79.32;;;48.95;;
47812;SDS011;34221;45.296;9.516;2023-02-15T00:46:49;80.55;;;49.67;;
47812;SDS011;34221;45.296;9.516;2023-02-15T00:47:04;80.43;;;50.38;;
47812;SDS011;34221;45.296;9.516;2023-02-15T00:47:19;76.70;;;49.05;;
47812;SDS011;34221;45.296;9.516;2023-02-15T00:47:34;73.78;;;48.42;;
47812;SDS011;34221;45.296;9.516;2023-02-15T00:47:49;78.72;;;49.78;;
47812;SDS011;34221;45.296;9.516;2023-02-15T00:48:04;80.65;;;49.60;;
47812;SDS011;34221;45.296;9.516;2023-02-15T00:48:19;81.80;;;48.80;;
47812;SDS011;34221;45.296;9.516;2023-02-15T00:48:35;82.18;;;48.95;;
47812;SDS011;34221;45.296;9.516;2023-02-15T00:48:51;76.15;;;48.75;;
47812;SDS011;34221;45.296;9.516;2023-02-15T00:49:06;75.85;;;49.25;;
47812;SDS011;34221;45.296;9.516;2023-02-15T00:49:21;78.53;;;49.30;;
47812;SDS011;34221;45.296;9.516;2023-02-15T00:49:36;78.63;;;48.73;;
47812;SDS011;34221;45.296;9.516;2023-02-15T00:49:51;78.35;;;49.15;;
47812;SDS011;34221;45.296;9.516;2023-02-15T00:50:06;77.78;;;49.95;;
47812;SDS011;34221;45.296;9.516;2023-02-15T00:50:21;76.57;;;49.47;;
47812;SDS011;34221;45.296;9.516;2023-02-15T00:50:39;76.78;;;49.25;;
47812;SDS011;34221;45.296;9.516;2023-02-15T00:50:55;75.05;;;49.40;;
47812;SDS011;34221;45.296;9.516;2023-02-15T00:51:12;78.70;;;51.30;;
47812;SDS011;34221;45.296;9.516;2023-02-15T00:51:28;82.90;;;50.97;;
47812;SDS011;34221;45.296;9.516;2023-02-15T00:51:42;79.43;;;48.97;;
47812;SDS011;34221;45.296;9.516;2023-02-15T00:51:57;79.25;;;49.88;;
47812;SDS011;34221;45.296;9.516;2023-02-15T00:52:12;77.13;;;49.95;;
47812;SDS011;34221;45.296;9.516;2023-02-15T00:52:27;78.03;;;50.03;;
47812;SDS011;34221;45.296;9.516;2023-02-15T00:52:44;81.75;;;50.38;;
47812;SDS011;34221;45.296;9.516;2023-02-15T00:52:59;83.88;;;50.80;;
47812;SDS011;34221;45.296;9.516;2023-02-15T00:53:14;83.25;;;51.85;;
47812;SDS011;34221;45.296;9.516;2023-02-15T00:53:29;77.32;;;52.33;;
47812;SDS011;34221;45.296;9.516;2023-02-15T00:53:44;77.18;;;52.00;;
47812;SDS011;34221;45.296;9.516;2023-02-15T00:54:01;80.68;;;51.42;;
47812;SDS011;34221;45.296;9.516;2023-02-15T00:54:17;90.75;;;53.15;;
47812;SDS011;34221;45.296;9.516;2023-02-15T00:54:32;92.68;;;53.50;;
47812;SDS011;34221;45.296;9.516;2023-02-15T00:54:48;85.35;;;53.03;;
47812;SDS011;34221;45.296;9.516;2023-02-15T00:55:03;83.30;;;53.10;;
47812;SDS011;34221;45.296;9.516;2023-02-15T00:55:19;84.10;;;54.22;;
47812;SDS011;34221;45.296;9.516;2023-02-15T00:55:34;83.90;;;54.28;;
47812;SDS011;34221;45.296;9.516;2023-02-15T00:55:49;85.18;;;54.22;;
47812;SDS011;34221;45.296;9.516;2023-02-15T00:56:04;88.90;;;54.45;;
47812;SDS011;34221;45.296;9.516;2023-02-15T00:56:19;87.70;;;52.92;;
47812;SDS011;34221;45.296;9.516;2023-02-15T00:56:34;83.85;;;53.22;;
47812;SDS011;34221;45.296;9.516;2023-02-15T00:56:49;82.82;;;53.42;;
47812;SDS011;34221;45.296;9.516;2023-02-15T00:57:04;84.07;;;52.28;;
47812;SDS011;34221;45.296;9.516;2023-02-15T00:57:19;85.20;;;52.38;;
47812;SDS011;34221;45.296;9.516;2023-02-15T00:57:34;84.00;;;52.85;;
47812;SDS011;34221;45.296;9.516;2023-02-15T00:57:49;87.40;;;54.10;;
47812;SDS011;34221;45.296;9.516;2023-02-15T00:58:06;89.25;;;54.63;;
47812;SDS011;34221;45.296;9.516;2023-02-15T00:58:23;92.78;;;54.05;;
47812;SDS011;34221;45.296;9.516;2023-02-15T00:58:38;91.72;;;54.45;;
47812;SDS011;34221;45.296;9.516;2023-02-15T00:58:53;86.97;;;54.53;;
47812;SDS011;34221;45.296;9.516;2023-02-15T00:59:08;83.75;;;51.38;;
47812;SDS011;34221;45.296;9.516;2023-02-15T00:59:23;82.30;;;50.95;;
47812;SDS011;34221;45.296;9.516;2023-02-15T00:59:38;85.03;;;53.75;;
47812;SDS011;34221;45.296;9.516;2023-02-15T00:59:53;84.75;;;54.45;;
47812;SDS011;34221;45.296;9.516;2023-02-15T01:00:11;84.55;;;55.65;;
47812;SDS011;34221;45.296;9.516;2023-02-15T01:00:27;85.65;;;55.22;;
47812;SDS011;34221;45.296;9.516;2023-02-15T01:00:45;85.03;;;53.75;;
47812;SDS011;34221;45.296;9.516;2023-02-15T01:01:02;85.15;;;52.92;;
47812;SDS011;34221;45.296;9.516;2023-02-15T01:01:23;87.40;;;53.55;;
47812;SDS011;34221;45.296;9.516;2023-02-15T01:01:39;83.78;;;52.53;;
47812;SDS011;34221;45.296;9.516;2023-02-15T01:01:54;81.20;;;51.47;;
47812;SDS011;34221;45.296;9.516;2023-02-15T01:02:09;84.93;;;53.15;;
47812;SDS011;34221;45.296;9.516;2023-02-15T01:02:24;86.03;;;54.35;;
47812;SDS011;34221;45.296;9.516;2023-02-15T01:02:39;84.07;;;53.47;;
47812;SDS011;34221;45.296;9.516;2023-02-15T01:02:54;82.35;;;53.00;;
47812;SDS011;34221;45.296;9.516;2023-02-15T01:03:09;84.13;;;53.42;;
47812;SDS011;34221;45.296;9.516;2023-02-15T01:03:25;83.53;;;54.20;;
47812;SDS011;34221;45.296;9.516;2023-02-15T01:03:40;81.60;;;53.85;;
47812;SDS011;34221;45.296;9.516;2023-02-15T01:03:57;85.55;;;55.25;;
47812;SDS011;34221;45.296;9.516;2023-02-15T01:04:12;91.95;;;56.58;;
47812;SDS011;34221;45.296;9.516;2023-02-15T01:04:27;91.97;;;56.40;;
47812;SDS011;34221;45.296;9.516;2023-02-15T01:04:41;85.45;;;55.65;;
47812;SDS011;34221;45.296;9.516;2023-02-15T01:04:56;86.30;;;56.13;;
47812;SDS011;34221;45.296;9.516;2023-02-15T01:05:11;90.60;;;57.67;;
47812;SDS011;34221;45.296;9.516;2023-02-15T01:05:26;89.10;;;57.03;;
47812;SDS011;34221;45.296;9.516;2023-02-15T01:05:43;88.93;;;57.17;;
47812;SDS011;34221;45.296;9.516;2023-02-15T01:05:59;90.25;;;58.78;;
47812;SDS011;34221;45.296;9.516;2023-02-15T01:06:15;91.00;;;59.17;;
47812;SDS011;34221;45.296;9.516;2023-02-15T01:06:31;92.73;;;59.10;;
47812;SDS011;34221;45.296;9.516;2023-02-15T01:06:46;91.03;;;57.00;;
47812;SDS011;34221;45.296;9.516;2023-02-15T01:07:00;86.97;;;54.20;;
47812;SDS011;34221;45.296;9.516;2023-02-15T01:07:21;93.63;;;56.58;;
47812;SDS011;34221;45.296;9.516;2023-02-15T01:07:36;95.75;;;58.53;;
47812;SDS011;34221;45.296;9.516;2023-02-15T01:07:50;91.55;;;57.33;;
47812;SDS011;34221;45.296;9.516;2023-02-15T01:08:05;89.10;;;55.28;;
47812;SDS011;34221;45.296;9.516;2023-02-15T01:08:21;89.70;;;55.90;;
47812;SDS011;34221;45.296;9.516;2023-02-15T01:08:36;93.00;;;57.10;;
47812;SDS011;34221;45.296;9.516;2023-02-15T01:08:51;87.20;;;55.33;;
47812;SDS011;34221;45.296;9.516;2023-02-15T01:09:06;84.65;;;54.78;;
47812;SDS011;34221;45.296;9.516;2023-02-15T01:09:21;90.28;;;56.00;;
47812;SDS011;34221;45.296;9.516;2023-02-15T01:09:36;89.70;;;56.40;;
47812;SDS011;34221;45.296;9.516;2023-02-15T01:09:51;86.53;;;55.53;;
47812;SDS011;34221;45.296;9.516;2023-02-15T01:10:06;86.82;;;55.58;;
47812;SDS011;34221;45.296;9.516;2023-02-15T01:10:22;85.35;;;55.80;;
47812;SDS011;34221;45.296;9.516;2023-02-15T01:10:37;82.82;;;55.25;;
47812;SDS011;34221;45.296;9.516;2023-02-15T01:10:53;83.13;;;55.95;;
47812;SDS011;34221;45.296;9.516;2023-02-15T01:11:13;89.05;;;56.35;;
47812;SDS011;34221;45.296;9.516;2023-02-15T01:11:41;87.57;;;55.88;;
47812;SDS011;34221;45.296;9.516;2023-02-15T01:11:55;87.07;;;55.93;;
47812;SDS011;34221;45.296;9.516;2023-02-15T01:12:10;92.18;;;57.28;;
47812;SDS011;34221;45.296;9.516;2023-02-15T01:12:25;90.57;;;58.03;;
47812;SDS011;34221;45.296;9.516;2023-02-15T01:12:40;88.93;;;58.43;;
47812;SDS011;34221;45.296;9.516;2023-02-15T01:12:55;87.83;;;58.53;;
47812;SDS011;34221;45.296;9.516;2023-02-15T01:13:11;90.13;;;59.05;;
47812;SDS011;34221;45.296;9.516;2023-02-15T01:13:26;92.88;;;59.78;;
47812;SDS011;34221;45.296;9.516;2023-02-15T01:13:41;92.15;;;58.83;;
47812;SDS011;34221;45.296;9.516;2023-02-15T01:13:57;90.07;;;57.70;;
47812;SDS011;34221;45.296;9.516;2023-02-15T01:14:12;90.10;;;58.03;;
47812;SDS011;34221;45.296;9.516;2023-02-15T01:14:29;96.03;;;60.65;;
47812;SDS011;34221;45.296;9.516;2023-02-15T01:14:44;96.78;;;60.50;;
47812;SDS011;34221;45.296;9.516;2023-02-15T01:14:59;94.47;;;59.90;;
47812;SDS011;34221;45.296;9.516;2023-02-15T01:15:14;98.88;;;62.13;;
47812;SDS011;34221;45.296;9.516;2023-02-15T01:15:29;102.20;;;64.05;;
47812;SDS011;34221;45.296;9.516;2023-02-15T01:15:54;102.93;;;64.10;;
47812;SDS011;34221;45.296;9.516;2023-02-15T01:16:10;100.22;;;64.60;;
47812;SDS011;34221;45.296;9.516;2023-02-15T01:16:25;102.45;;;64.05;;
47812;SDS011;34221;45.296;9.516;2023-02-15T01:16:42;105.68;;;65.78;;
47812;SDS011;34221;45.296;9.516;2023-02-15T01:16:57;106.22;;;66.68;;
47812;SDS011;34221;45.296;9.516;2023-02-15T01:17:12;102.60;;;65.55;;
47812;SDS011;34221;45.296;9.516;2023-02-15T01:17:27;97.80;;;64.55;;
47812;SDS011;34221;45.296;9.516;2023-02-15T01:17:43;100.05;;;64.20;;
47812;SDS011;34221;45.296;9.516;2023-02-15T01:18:05;102.28;;;65.88;;
47812;SDS011;34221;45.296;9.516;2023-02-15T01:18:20;100.78;;;65.70;;
47812;SDS011;34221;45.296;9.516;2023-02-15T01:18:36;97.25;;;64.78;;
47812;SDS011;34221;45.296;9.516;2023-02-15T01:18:51;97.22;;;64.00;;
47812;SDS011;34221;45.296;9.516;2023-02-15T01:19:06;98.63;;;62.75;;
47812;SDS011;34221;45.296;9.516;2023-02-15T01:19:21;98.25;;;62.63;;
47812;SDS011;34221;45.296;9.516;2023-02-15T01:19:36;98.40;;;63.38;;
47812;SDS011;34221;45.296;9.516;2023-02-15T01:19:51;97.35;;;64.00;;
47812;SDS011;34221;45.296;9.516;2023-02-15T01:20:07;99.20;;;62.63;;
47812;SDS011;34221;45.296;9.516;2023-02-15T01:20:24;95.95;;;61.53;;
47812;SDS011;34221;45.296;9.516;2023-02-15T01:20:41;101.72;;;62.05;;
47812;SDS011;34221;45.296;9.516;2023-02-15T01:20:56;93.70;;;59.33;;
47812;SDS011;34221;45.296;9.516;2023-02-15T01:21:12;94.38;;;58.92;;
47812;SDS011;34221;45.296;9.516;2023-02-15T01:21:31;97.18;;;60.60;;
47812;SDS011;34221;45.296;9.516;2023-02-15T01:21:48;93.55;;;59.78;;
47812;SDS011;34221;45.296;9.516;2023-02-15T01:22:03;94.35;;;59.67;;
47812;SDS011;34221;45.296;9.516;2023-02-15T01:22:23;96.45;;;60.65;;
47812;SDS011;34221;45.296;9.516;2023-02-15T01:22:38;97.13;;;61.35;;
47812;SDS011;34221;45.296;9.516;2023-02-15T01:22:53;94.05;;;58.38;;
47812;SDS011;34221;45.296;9.516;2023-02-15T01:23:09;92.00;;;56.42;;
47812;SDS011;34221;45.296;9.516;2023-02-15T01:23:24;89.17;;;56.27;;
47812;SDS011;34221;45.296;9.516;2023-02-15T01:23:39;89.05;;;56.97;;
47812;SDS011;34221;45.296;9.516;2023-02-15T01:23:56;86.50;;;56.17;;
47812;SDS011;34221;45.296;9.516;2023-02-15T01:24:13;88.45;;;56.30;;
47812;SDS011;34221;45.296;9.516;2023-02-15T01:24:29;92.72;;;58.17;;
47812;SDS011;34221;45.296;9.516;2023-02-15T01:24:44;96.38;;;59.20;;
47812;SDS011;34221;45.296;9.516;2023-02-15T01:25:00;103.15;;;60.47;;
47812;SDS011;34221;45.296;9.516;2023-02-15T01:25:17;99.85;;;61.15;;
47812;SDS011;34221;45.296;9.516;2023-02-15T01:25:34;96.30;;;61.00;;
47812;SDS011;34221;45.296;9.516;2023-02-15T01:25:50;94.45;;;60.22;;
47812;SDS011;34221;45.296;9.516;2023-02-15T01:26:05;93.95;;;59.38;;
47812;SDS011;34221;45.296;9.516;2023-02-15T01:26:20;97.15;;;60.15;;
47812;SDS011;34221;45.296;9.516;2023-02-15T01:26:35;95.68;;;60.25;;
47812;SDS011;34221;45.296;9.516;2023-02-15T01:26:50;89.72;;;58.38;;
47812;SDS011;34221;45.296;9.516;2023-02-15T01:27:05;88.25;;;58.40;;
47812;SDS011;34221;45.296;9.516;2023-02-15T01:27:20;90.93;;;59.50;;
47812;SDS011;34221;45.296;9.516;2023-02-15T01:27:35;90.85;;;59.05;;
47812;SDS011;34221;45.296;9.516;2023-02-15T01:27:49;91.10;;;58.90;;
47812;SDS011;34221;45.296;9.516;2023-02-15T01:28:05;93.63;;;58.38;;
47812;SDS011;34221;45.296;9.516;2023-02-15T01:28:20;93.75;;;58.38;;
47812;SDS011;34221;45.296;9.516;2023-02-15T01:28:35;93.95;;;59.53;;
47812;SDS011;34221;45.296;9.516;2023-02-15T01:28:51;96.18;;;59.83;;
47812;SDS011;34221;45.296;9.516;2023-02-15T01:29:06;96.70;;;59.70;;
47812;SDS011;34221;45.296;9.516;2023-02-15T01:29:21;97.28;;;60.30;;
47812;SDS011;34221;45.296;9.516;2023-02-15T01:29:36;100.10;;;59.50;;
47812;SDS011;34221;45.296;9.516;2023-02-15T01:29:50;99.65;;;59.17;;
47812;SDS011;34221;45.296;9.516;2023-02-15T01:30:05;92.80;;;58.20;;
47812;SDS011;34221;45.296;9.516;2023-02-15T01:30:22;93.10;;;57.42;;
47812;SDS011;34221;45.296;9.516;2023-02-15T01:30:37;93.53;;;58.45;;
47812;SDS011;34221;45.296;9.516;2023-02-15T01:30:52;90.43;;;58.67;;
47812;SDS011;34221;45.296;9.516;2023-02-15T01:31:10;91.78;;;58.25;;
47812;SDS011;34221;45.296;9.516;2023-02-15T01:31:28;92.05;;;58.17;;
47812;SDS011;34221;45.296;9.516;2023-02-15T01:31:43;91.03;;;58.30;;
47812;SDS011;34221;45.296;9.516;2023-02-15T01:31:58;88.72;;;56.80;;
47812;SDS011;34221;45.296;9.516;2023-02-15T01:32:13;90.78;;;58.78;;
47812;SDS011;34221;45.296;9.516;2023-02-15T01:32:31;96.95;;;61.78;;
47812;SDS011;34221;45.296;9.516;2023-02-15T01:32:46;97.75;;;61.45;;